Portada
METAR-TAF:

METAR-TAF

Aeroports :

Lar, Iran

latitud: 27-40-26N, longitud: 054-22-53E, altitud: 792 m

Observació

L'informe es va fer fa 49 minuts, a les 05:00 UTC
Vent calma
Temperatura 14°C
Humitat 63%
Pressió 1016 hPa
Visibilitat 10 km o més
Escasses núvols a una alçada de 4000 ft

METAR: OISL 210500Z 00000KT 9999 FEW040 14/07 Q1016 NOSIG

Hora: 09:19 (05:49 UTC)

Pronòstic

L'informe es va fer fa 6 hores i 49 minuts, a les 23:00 UTC
Pronòstic vàlid del 21 a les 00 UTC al 22 a les 06 UTC
Vent 6 kt del Sud/Sud-Est
Visibilitat: 8000 m
Escasses núvols a una alçada de 4000 ft

TAF: OISL 202300Z 2100/2206 15006KT 8000 FEW040

Observacions i pronòstics meteorològics de més de 4000 aeroports (METAR i TAF).

Les estacions disponibles són els punts grocs i vermells al mapa.

Posi el ratolí al punt desitjat per veure el nom de l'estació.

Feu clic per veure les observacions i els pronòstics meteorològics.

Per canviar el mapa: feu clic els botons verds amb una creu de color negre per apropar; al botó verd amb un guió per allunyar la imatge; o en les fletxes verdes per a mapes adjacents.


METAR-TAF: